Terminal Aerodrome Forecast
Issued by NWS Spokane, WA

Home | Current Version | Previous Version | Text Only | Print | Product List | Glossary On
Versions: 1 2 3 4 5 6 7 8 9 10 11 12 13 14 15 16 17 18 19 20 21 22 23 24 25 26 27 28
968
FTUS46 KOTX 252338
TAFGEG
TAF
KGEG 252338Z 2600/2624 25005KT P6SM FEW060 BKN200
     FM260300 35006G12KT P6SM FEW060 SCT200
     FM260700 VRB03KT P6SM FEW200
     FM261900 28005KT P6SM FEW060=

USA.gov is the U.S. government's official web portal to all federal, state and local government web resources and services.